Le Ponant — FGZZ — position and weather

sailwx.info

Track history (hours):
 
Tides and Currents Weather Stations Pressure Air Temp Water Temp Dewpoint Dewpoint Depression Visibility Wind Speed Wind Dir Waves Ship Positions

Le Ponant

Operator: Compangy des Iles du Ponant

Last reported at 2017-Aug-16 18:25 UTC. Time now 2017-Aug-16 19:18 UTC.
Position N 43°35' E 007°23'.

Length 84 m; draft 4.2 m.

Type: Passenger vessel. MMSI: 227186000.

Date/timePositionNaut miles runAvg speedWind from/ knotsBaromVisibWave heightAir tempDewpointWater temp
2017-Aug-16 18:25N 43°35' E 007°23'4 9.6
2017-Aug-16 18:00N 43°39' E 007°20'3 5.7
2017-Aug-16 17:29N 43°41' E 007°19'1 0.1
2017-Aug-16 05:17N 43°40' E 007°18'3 8.9
2017-Aug-16 05:00N 43°38' E 007°19'4 8.1
2017-Aug-16 04:30N 43°35' E 007°24'4 8.7
2017-Aug-16 04:00N 43°33' E 007°29'5 9.0
2017-Aug-16 03:30N 43°30' E 007°34'3 7.0
2017-Aug-16 03:00N 43°27' E 007°35'4 8.5
2017-Aug-16 02:30N 43°24' E 007°40'5 8.4
2017-Aug-16 01:56N 43°21' E 007°44'10 8.6
2017-Aug-16 00:48N 43°14' E 007°54'3 8.8
2017-Aug-16 00:30N 43°12' E 007°56'4 8.7
2017-Aug-16 00:00N 43°08' E 008°00'9 8.7
2017-Aug-15 23:00N 43°02' E 008°09'5 8.8
2017-Aug-15 22:27N 42°59' E 008°13'4 8.7
2017-Aug-15 22:00N 42°56' E 008°17'7 8.9
2017-Aug-15 21:14N 42°51' E 008°24'2 9.1
2017-Aug-15 21:00N 42°50' E 008°26'18 9.3
2017-Aug-15 19:07N 42°37' E 008°43'4 8.8
2017-Aug-15 18:42N 42°35' E 008°46'1 3.5
2017-Aug-15 18:28N 42°34' E 008°46'0 0.0
2017-Aug-15 17:44N 42°34' E 008°46'0 0.1
2017-Aug-15 17:29N 42°34' E 008°46'27 1.1
2017-Aug-14 17:15N 42°07' E 008°36'0 0.0
2017-Aug-14 16:51N 42°07' E 008°36'0 0.0
2017-Aug-14 16:27N 42°07' E 008°36'0 0.0
2017-Aug-14 15:51N 42°07' E 008°36'0 0.0
2017-Aug-14 15:27N 42°07' E 008°36'0 0.0
2017-Aug-14 15:00N 42°07' E 008°36'0 0.0
2017-Aug-14 14:30N 42°07' E 008°36'0 0.0
2017-Aug-14 13:48N 42°07' E 008°36'1 0.1
2017-Aug-14 05:17N 42°07' E 008°35'50 4.1
2017-Aug-13 17:04N 41°23' E 009°07'  
2017-Aug-10 22:49N 42°29' E 010°07'1 3.0
2017-Aug-10 22:29N 42°30' E 010°08'2 3.8
2017-Aug-10 21:54N 42°30' E 010°11'4 4.9
2017-Aug-10 21:07N 42°32' E 010°15'1 5.2
2017-Aug-10 20:58N 42°32' E 010°16'4 5.1
2017-Aug-10 20:11N 42°35' E 010°21'14 2.8
2017-Aug-10 15:05N 42°49' E 010°20'0 0.0
2017-Aug-10 14:56N 42°49' E 010°20'0 0.0
2017-Aug-10 14:29N 42°49' E 010°20'0 0.0
2017-Aug-10 13:47N 42°49' E 010°20'0 0.0
2017-Aug-10 13:26N 42°49' E 010°20'0 0.0
2017-Aug-10 11:26N 42°49' E 010°20'0 0.0
2017-Aug-10 10:59N 42°49' E 010°20'0 0.0
2017-Aug-10 10:20N 42°49' E 010°20'29 4.7
2017-Aug-10 04:18N 43°10' E 009°53'310.1
2017-Aug-10 04:00N 43°11' E 009°49'7 9.9
2017-Aug-10 03:21N 43°13' E 009°41'3 9.4
2017-Aug-10 03:00N 43°14' E 009°36'5 9.2
2017-Aug-10 02:28N 43°15' E 009°30'4 9.1
2017-Aug-10 02:00N 43°16' E 009°24'5 9.5
2017-Aug-10 01:30N 43°17' E 009°18'5 9.4
2017-Aug-10 01:00N 43°18' E 009°12'5 9.6
2017-Aug-10 00:30N 43°19' E 009°05'5 9.8
2017-Aug-10 00:00N 43°20' E 008°59'510.1
2017-Aug-09 23:31N 43°21' E 008°52'510.1
2017-Aug-09 23:00N 43°22' E 008°45'5 9.7
2017-Aug-09 22:30N 43°23' E 008°38'5 9.8
2017-Aug-09 22:00N 43°24' E 008°32'1210.2
2017-Aug-09 20:50N 43°27' E 008°16'310.4
2017-Aug-09 20:30N 43°27' E 008°11'610.5
2017-Aug-09 19:58N 43°29' E 008°04'510.5
2017-Aug-09 19:31N 43°30' E 007°57'510.2
2017-Aug-09 19:00N 43°31' E 007°50'610.2
2017-Aug-09 18:28N 43°31' E 007°43'510.2
2017-Aug-09 18:00N 43°31' E 007°36'510.1
2017-Aug-09 17:31N 43°34' E 007°31'6 0.5
2017-Aug-09 04:42N 43°36' E 007°23'2 7.8
2017-Aug-09 04:27N 43°34' E 007°25'17 8.7
2017-Aug-09 02:33N 43°23' E 007°41'2 9.2
2017-Aug-09 02:19N 43°21' E 007°43'3 8.9
2017-Aug-09 02:00N 43°19' E 007°46'5 9.0
2017-Aug-09 01:30N 43°16' E 007°50'5 9.2
2017-Aug-09 01:00N 43°13' E 007°54'5 9.2
2017-Aug-09 00:30N 43°09' E 007°59'10 9.1
2017-Aug-08 23:24N 43°03' E 008°09'4 9.0
2017-Aug-08 23:00N 42°60' E 008°12'4 9.0
2017-Aug-08 22:30N 42°57' E 008°16'5 9.4
2017-Aug-08 21:58N 42°53' E 008°21'4 9.3
2017-Aug-08 21:30N 42°50' E 008°25'5 9.1
2017-Aug-08 21:00N 42°47' E 008°30'5 9.0
2017-Aug-08 20:28N 42°43' E 008°34'4 9.3
2017-Aug-08 20:00N 42°40' E 008°38'8 2.1
2017-Aug-08 16:02N 42°34' E 008°46'0 0.0
2017-Aug-08 15:53N 42°34' E 008°46'0 0.0
2017-Aug-08 15:17N 42°34' E 008°46'0 0.0
2017-Aug-08 14:53N 42°34' E 008°46'0 0.0
2017-Aug-08 13:50N 42°34' E 008°46'0 0.0
2017-Aug-08 13:20N 42°34' E 008°46'0 0.0
2017-Aug-08 12:56N 42°34' E 008°46'0 0.0
2017-Aug-08 12:05N 42°34' E 008°46'0 0.0
2017-Aug-08 11:56N 42°34' E 008°46'0 0.0
2017-Aug-08 11:26N 42°34' E 008°46'0 0.0
2017-Aug-08 10:53N 42°34' E 008°46'0 0.0
2017-Aug-08 08:53N 42°34' E 008°46'0 0.1
2017-Aug-08 08:26N 42°34' E 008°46'0 0.0
2017-Aug-08 07:53N 42°34' E 008°46'0 0.0
2017-Aug-08 07:23N 42°34' E 008°46'0 0.1
2017-Aug-08 06:59N 42°34' E 008°46'0 0.3
2017-Aug-08 06:26N 42°34' E 008°46'4 8.2
2017-Aug-08 05:55N 42°38' E 008°49'4 9.9
2017-Aug-08 05:30N 42°41' E 008°53'5 9.5
2017-Aug-08 04:57N 42°45' E 008°58'4 9.4
2017-Aug-08 04:31N 42°48' E 009°02'5 9.3
2017-Aug-08 04:01N 42°51' E 009°06'5 9.1
2017-Aug-08 03:31N 42°54' E 009°10'4 8.9
2017-Aug-08 03:00N 42°58' E 009°15'4 8.7
2017-Aug-08 02:30N 43°01' E 009°18'5 8.7
2017-Aug-08 01:57N 43°04' E 009°23'12 7.6
2017-Aug-08 00:23N 43°01' E 009°39'410.5
2017-Aug-07 23:59N 42°57' E 009°40'810.2
2017-Aug-07 23:12N 42°49' E 009°41'4910.0
2017-Aug-07 18:18N 42°00' E 009°41'410.0
2017-Aug-07 17:56N 41°57' E 009°38'  
Track history (hours):
 
Tides and Currents Weather Stations Pressure Air Temp Water Temp Dewpoint Dewpoint Depression Visibility Wind Speed Wind Dir Waves Ship Positions

Le Ponant

Operator: Compangy des Iles du Ponant

Last reported at 2017-Aug-16 18:25 UTC. Time now 2017-Aug-16 19:18 UTC.
Position N 43°35' E 007°23'.

Length 84 m; draft 4.2 m.

Type: Passenger vessel. MMSI: 227186000.

Date/timePositionNaut miles runAvg speedWind from/ knotsBaromVisibWave heightAir tempDewpointWater temp
2017-Aug-16 18:25N 43°35' E 007°23'4 9.6
2017-Aug-16 18:00N 43°39' E 007°20'3 5.7
2017-Aug-16 17:29N 43°41' E 007°19'1 0.1
2017-Aug-16 05:17N 43°40' E 007°18'3 8.9
2017-Aug-16 05:00N 43°38' E 007°19'4 8.1
2017-Aug-16 04:30N 43°35' E 007°24'4 8.7
2017-Aug-16 04:00N 43°33' E 007°29'5 9.0
2017-Aug-16 03:30N 43°30' E 007°34'3 7.0
2017-Aug-16 03:00N 43°27' E 007°35'4 8.5
2017-Aug-16 02:30N 43°24' E 007°40'5 8.4
2017-Aug-16 01:56N 43°21' E 007°44'10 8.6
2017-Aug-16 00:48N 43°14' E 007°54'3 8.8
2017-Aug-16 00:30N 43°12' E 007°56'4 8.7
2017-Aug-16 00:00N 43°08' E 008°00'9 8.7
2017-Aug-15 23:00N 43°02' E 008°09'5 8.8
2017-Aug-15 22:27N 42°59' E 008°13'4 8.7
2017-Aug-15 22:00N 42°56' E 008°17'7 8.9
2017-Aug-15 21:14N 42°51' E 008°24'2 9.1
2017-Aug-15 21:00N 42°50' E 008°26'18 9.3
2017-Aug-15 19:07N 42°37' E 008°43'4 8.8
2017-Aug-15 18:42N 42°35' E 008°46'1 3.5
2017-Aug-15 18:28N 42°34' E 008°46'0 0.0
2017-Aug-15 17:44N 42°34' E 008°46'0 0.1
2017-Aug-15 17:29N 42°34' E 008°46'27 1.1
2017-Aug-14 17:15N 42°07' E 008°36'0 0.0
2017-Aug-14 16:51N 42°07' E 008°36'0 0.0
2017-Aug-14 16:27N 42°07' E 008°36'0 0.0
2017-Aug-14 15:51N 42°07' E 008°36'0 0.0
2017-Aug-14 15:27N 42°07' E 008°36'0 0.0
2017-Aug-14 15:00N 42°07' E 008°36'0 0.0
2017-Aug-14 14:30N 42°07' E 008°36'0 0.0
2017-Aug-14 13:48N 42°07' E 008°36'1 0.1
2017-Aug-14 05:17N 42°07' E 008°35'50 4.1
2017-Aug-13 17:04N 41°23' E 009°07'  
2017-Aug-10 22:49N 42°29' E 010°07'1 3.0
2017-Aug-10 22:29N 42°30' E 010°08'2 3.8
2017-Aug-10 21:54N 42°30' E 010°11'4 4.9
2017-Aug-10 21:07N 42°32' E 010°15'1 5.2
2017-Aug-10 20:58N 42°32' E 010°16'4 5.1
2017-Aug-10 20:11N 42°35' E 010°21'14 2.8
2017-Aug-10 15:05N 42°49' E 010°20'0 0.0
2017-Aug-10 14:56N 42°49' E 010°20'0 0.0
2017-Aug-10 14:29N 42°49' E 010°20'0 0.0
2017-Aug-10 13:47N 42°49' E 010°20'0 0.0
2017-Aug-10 13:26N 42°49' E 010°20'0 0.0
2017-Aug-10 11:26N 42°49' E 010°20'0 0.0
2017-Aug-10 10:59N 42°49' E 010°20'0 0.0
2017-Aug-10 10:20N 42°49' E 010°20'29 4.7
2017-Aug-10 04:18N 43°10' E 009°53'310.1
2017-Aug-10 04:00N 43°11' E 009°49'7 9.9
2017-Aug-10 03:21N 43°13' E 009°41'3 9.4
2017-Aug-10 03:00N 43°14' E 009°36'5 9.2
2017-Aug-10 02:28N 43°15' E 009°30'4 9.1
2017-Aug-10 02:00N 43°16' E 009°24'5 9.5
2017-Aug-10 01:30N 43°17' E 009°18'5 9.4
2017-Aug-10 01:00N 43°18' E 009°12'5 9.6
2017-Aug-10 00:30N 43°19' E 009°05'5 9.8
2017-Aug-10 00:00N 43°20' E 008°59'510.1
2017-Aug-09 23:31N 43°21' E 008°52'510.1
2017-Aug-09 23:00N 43°22' E 008°45'5 9.7
2017-Aug-09 22:30N 43°23' E 008°38'5 9.8
2017-Aug-09 22:00N 43°24' E 008°32'1210.2
2017-Aug-09 20:50N 43°27' E 008°16'310.4
2017-Aug-09 20:30N 43°27' E 008°11'610.5
2017-Aug-09 19:58N 43°29' E 008°04'510.5
2017-Aug-09 19:31N 43°30' E 007°57'510.2
2017-Aug-09 19:00N 43°31' E 007°50'610.2
2017-Aug-09 18:28N 43°31' E 007°43'510.2
2017-Aug-09 18:00N 43°31' E 007°36'510.1
2017-Aug-09 17:31N 43°34' E 007°31'6 0.5
2017-Aug-09 04:42N 43°36' E 007°23'2 7.8
2017-Aug-09 04:27N 43°34' E 007°25'17 8.7
2017-Aug-09 02:33N 43°23' E 007°41'2 9.2
2017-Aug-09 02:19N 43°21' E 007°43'3 8.9
2017-Aug-09 02:00N 43°19' E 007°46'5 9.0
2017-Aug-09 01:30N 43°16' E 007°50'5 9.2
2017-Aug-09 01:00N 43°13' E 007°54'5 9.2
2017-Aug-09 00:30N 43°09' E 007°59'10 9.1
2017-Aug-08 23:24N 43°03' E 008°09'4 9.0
2017-Aug-08 23:00N 42°60' E 008°12'4 9.0
2017-Aug-08 22:30N 42°57' E 008°16'5 9.4
2017-Aug-08 21:58N 42°53' E 008°21'4 9.3
2017-Aug-08 21:30N 42°50' E 008°25'5 9.1
2017-Aug-08 21:00N 42°47' E 008°30'5 9.0
2017-Aug-08 20:28N 42°43' E 008°34'4 9.3
2017-Aug-08 20:00N 42°40' E 008°38'8 2.1
2017-Aug-08 16:02N 42°34' E 008°46'0 0.0
2017-Aug-08 15:53N 42°34' E 008°46'0 0.0
2017-Aug-08 15:17N 42°34' E 008°46'0 0.0
2017-Aug-08 14:53N 42°34' E 008°46'0 0.0
2017-Aug-08 13:50N 42°34' E 008°46'0 0.0
2017-Aug-08 13:20N 42°34' E 008°46'0 0.0
2017-Aug-08 12:56N 42°34' E 008°46'0 0.0
2017-Aug-08 12:05N 42°34' E 008°46'0 0.0
2017-Aug-08 11:56N 42°34' E 008°46'0 0.0
2017-Aug-08 11:26N 42°34' E 008°46'0 0.0
2017-Aug-08 10:53N 42°34' E 008°46'0 0.0
2017-Aug-08 08:53N 42°34' E 008°46'0 0.1
2017-Aug-08 08:26N 42°34' E 008°46'0 0.0
2017-Aug-08 07:53N 42°34' E 008°46'0 0.0
2017-Aug-08 07:23N 42°34' E 008°46'0 0.1
2017-Aug-08 06:59N 42°34' E 008°46'0 0.3
2017-Aug-08 06:26N 42°34' E 008°46'4 8.2
2017-Aug-08 05:55N 42°38' E 008°49'4 9.9
2017-Aug-08 05:30N 42°41' E 008°53'5 9.5
2017-Aug-08 04:57N 42°45' E 008°58'4 9.4
2017-Aug-08 04:31N 42°48' E 009°02'5 9.3
2017-Aug-08 04:01N 42°51' E 009°06'5 9.1
2017-Aug-08 03:31N 42°54' E 009°10'4 8.9
2017-Aug-08 03:00N 42°58' E 009°15'4 8.7
2017-Aug-08 02:30N 43°01' E 009°18'5 8.7
2017-Aug-08 01:57N 43°04' E 009°23'12 7.6
2017-Aug-08 00:23N 43°01' E 009°39'410.5
2017-Aug-07 23:59N 42°57' E 009°40'810.2
2017-Aug-07 23:12N 42°49' E 009°41'4910.0
2017-Aug-07 18:18N 42°00' E 009°41'410.0
2017-Aug-07 17:56N 41°57' E 009°38'  

Dump ship's entire track history